Time;durP1;ratioP1;P1;durP2;ratioP2;P2;SDS_P1;SDS_P2;PMS_P1;PMS_P2;Temp;Humidity;BMP_temperature;BMP_pressure;BME280_temperature;BME280_humidity;BME280_pressure;Samples;Min_cycle;Max_cycle;Signal;HPM_P1;HPM_P2
2022/09/21 00:01:06;;;;;;;;;;;;;;;20.15;67.35;97119.39;589342;240;66703;-66
2022/09/21 00:03:33;;;;;;;;;;;;;;;20.15;69.12;97122.06;585306;240;68956;-67
2022/09/21 00:06:02;;;;;;;;;;;;;;;20.15;69.07;97120.19;585091;242;65145;-67
2022/09/21 00:08:30;;;;;;;;;;;;;;;20.14;68.08;97109.80;585085;242;66348;-66
2022/09/21 00:10:58;;;;;;;;;;;;;;;20.14;69.00;97115.13;585120;242;68727;-66
2022/09/21 00:13:27;;;;;;;;;;;;;;;20.14;69.32;97115.13;585046;242;65069;-67
2022/09/21 00:15:55;;;;;;;;;;;;;;;20.13;69.24;97118.84;585092;242;69047;-66
2022/09/21 00:18:23;;;;;;;;;;;;;;;20.13;70.36;97124.18;585064;242;66673;-66
2022/09/21 00:20:55;;;;;;;;;;;;;;;20.12;70.43;97127.92;585059;242;62931;-67
2022/09/21 00:23:20;;;;;;;;;;;;;;;20.12;71.00;97126.05;584959;242;68885;-67
2022/09/21 00:25:47;;;;;;;;;;;;;;;20.12;70.63;97130.59;585105;242;66648;-66
2022/09/21 00:28:15;;;;;;;;;;;;;;;20.12;70.29;97130.59;585060;242;65061;-67
2022/09/21 00:30:43;;;;;;;;;;;;;;;20.11;70.64;97129.80;585068;242;66589;-66
2022/09/21 00:33:11;;;;;;;;;;;;;;;20.11;71.01;97126.33;585068;242;68657;-66
2022/09/21 00:35:38;;;;;;;;;;;;;;;20.10;70.55;97128.17;585059;242;65014;-66
2022/09/21 00:38:05;;;;;;;;;;;;;;;20.10;69.84;97130.05;585100;242;68771;-67
2022/09/21 00:40:33;;;;;;;;;;;;;;;20.10;70.65;97130.84;585059;242;68674;-66
2022/09/21 00:43:11;;;;;;;;;;;;;;;20.11;72.26;97127.13;585080;242;65039;-67
2022/09/21 00:45:39;;;;;;;;;;;;;;;20.09;71.97;97126.58;584868;242;68853;-67
2022/09/21 00:48:06;;;;;;;;;;;;;;;20.09;70.23;97120.45;585050;242;68704;-67
2022/09/21 00:50:35;;;;;;;;;;;;;;;20.09;71.10;97123.91;585111;242;65062;-66
2022/09/21 00:53:04;;;;;;;;;;;;;;;20.09;70.27;97121.24;585053;242;66573;-67
2022/09/21 00:55:36;;;;;;;;;;;;;;;20.08;69.52;97116.98;585084;242;68627;-66
2022/09/21 00:58:08;;;;;;;;;;;;;;;20.09;69.96;97113.23;585074;242;65314;-66
2022/09/21 01:00:36;;;;;;;;;;;;;;;20.09;70.37;97110.57;585014;242;66609;-66
2022/09/21 01:03:04;;;;;;;;;;;;;;;20.09;69.89;97117.78;588138;240;68905;-66
2022/09/21 01:05:32;;;;;;;;;;;;;;;20.09;70.05;97118.58;589371;240;63057;-67
2022/09/21 01:08:01;;;;;;;;;;;;;;;20.08;69.93;97111.64;589330;240;68904;-67
2022/09/21 01:10:30;;;;;;;;;;;;;;;20.08;70.14;97110.81;589324;240;68770;-67
2022/09/21 01:13:14;;;;;;;;;;;;;;;20.08;70.25;97111.64;589349;240;62994;-67
2022/09/21 01:15:43;;;;;;;;;;;;;;;20.08;70.06;97106.31;589331;240;68796;-67
2022/09/21 01:18:12;;;;;;;;;;;;;;;20.07;71.80;97107.36;589374;240;68900;-67
2022/09/21 01:20:41;;;;;;;;;;;;;;;20.06;70.43;97105.77;589370;240;63037;-66
2022/09/21 01:23:11;;;;;;;;;;;;;;;20.07;70.85;97109.23;589325;240;68536;-67
2022/09/21 01:25:40;;;;;;;;;;;;;;;20.06;70.64;97103.09;588913;240;66667;-67
2022/09/21 01:28:24;;;;;;;;;;;;;;;20.05;71.08;97096.17;589316;240;62830;-67
2022/09/21 01:30:53;;;;;;;;;;;;;;;20.06;70.04;97097.76;589093;240;69099;-67
2022/09/21 01:33:29;;;;;;;;;;;;;;;20.05;71.27;97101.50;589369;240;66667;-67
2022/09/21 01:35:58;;;;;;;;;;;;;;;20.04;70.71;97099.88;589305;240;64849;-66
2022/09/21 01:38:29;;;;;;;;;;;;;;;20.05;70.77;97098.01;589280;240;68808;-67
2022/09/21 01:41:01;;;;;;;;;;;;;;;20.05;70.14;97096.17;589283;240;68733;-66
2022/09/21 01:43:33;;;;;;;;;;;;;;;20.05;70.59;97090.83;589360;240;65077;-66
2022/09/21 01:46:02;;;;;;;;;;;;;;;20.05;71.51;97096.17;589110;240;68640;-67
2022/09/21 01:48:31;;;;;;;;;;;;;;;20.04;70.67;97094.55;589382;240;66457;-67
2022/09/21 01:51:00;;;;;;;;;;;;;;;20.06;70.70;97096.97;588964;240;65195;-67
2022/09/21 01:53:33;;;;;;;;;;;;;;;20.03;69.74;97087.62;589340;240;68415;-67
2022/09/21 01:56:05;;;;;;;;;;;;;;;20.04;70.47;97089.20;589327;240;68484;-67
2022/09/21 01:58:46;;;;;;;;;;;;;;;20.03;70.26;97087.62;588917;240;65091;-67
2022/09/21 02:01:15;;;;;;;;;;;;;;;20.05;69.80;97090.01;589330;240;66362;-67
2022/09/21 02:03:47;;;;;;;;;;;;;;;20.04;70.58;97088.41;589362;240;66471;-67
2022/09/21 02:06:15;;;;;;;;;;;;;;;20.03;70.58;97090.28;588047;240;65097;-66
2022/09/21 02:08:42;;;;;;;;;;;;;;;20.02;69.04;97091.33;589341;240;68587;-66
2022/09/21 02:11:12;;;;;;;;;;;;;;;20.02;69.21;97088.66;589335;240;68478;-66
2022/09/21 02:13:40;;;;;;;;;;;;;;;20.03;71.20;97092.16;589348;240;62833;-66
2022/09/21 02:16:11;;;;;;;;;;;;;;;20.03;70.37;97092.95;589372;240;68794;-67
2022/09/21 02:18:56;;;;;;;;;;;;;;;20.03;70.95;97092.16;589352;240;68953;-67
2022/09/21 02:21:25;;;;;;;;;;;;;;;20.02;69.84;97094.00;589329;240;65036;-67
2022/09/21 02:23:57;;;;;;;;;;;;;;;20.02;69.31;97096.66;589324;240;68858;-67
2022/09/21 02:26:26;;;;;;;;;;;;;;;20.01;70.65;97095.08;589183;240;68720;-66
2022/09/21 02:28:58;;;;;;;;;;;;;;;20.01;70.84;97094.28;589300;240;65021;-67
2022/09/21 02:31:26;;;;;;;;;;;;;;;20.01;69.43;97095.08;589161;240;68811;-67
2022/09/21 02:33:58;;;;;;;;;;;;;;;20.01;69.96;97095.08;589361;240;68799;-67
2022/09/21 02:36:29;;;;;;;;;;;;;;;20.01;70.84;97089.73;589392;240;65107;-67
2022/09/21 02:39:02;;;;;;;;;;;;;;;20.01;70.12;97088.94;589324;240;68418;-67
2022/09/21 02:41:31;;;;;;;;;;;;;;;20.00;69.87;97096.15;589149;239;68634;-67
2022/09/21 02:44:00;;;;;;;;;;;;;;;20.01;69.58;97095.08;589178;240;65331;-67
2022/09/21 02:46:47;;;;;;;;;;;;;;;20.01;70.05;97095.08;589385;240;69056;-67
2022/09/21 02:49:19;;;;;;;;;;;;;;;20.01;70.68;97091.61;589407;240;66647;-66
2022/09/21 02:51:48;;;;;;;;;;;;;;;20.00;69.33;97093.48;589343;240;65045;-66
2022/09/21 02:54:17;;;;;;;;;;;;;;;20.00;70.72;97093.48;589369;240;68897;-67
2022/09/21 02:56:47;;;;;;;;;;;;;;;20.01;70.48;97095.08;588968;240;68745;-67
2022/09/21 02:59:22;;;;;;;;;;;;;;;19.99;70.07;97086.52;589369;240;65171;-67
2022/09/21 03:01:44;;;;;;;;;;;;;;;19.99;70.53;97091.86;589106;240;68804;-67
2022/09/21 03:04:12;;;;;;;;;;;;;;;20.00;69.95;97095.32;589371;240;68693;-67
2022/09/21 03:06:40;;;;;;;;;;;;;;;19.99;70.51;97097.19;589344;240;65369;-67
2022/09/21 03:09:08;;;;;;;;;;;;;;;20.00;70.40;97098.81;589324;240;66668;-67
2022/09/21 03:11:35;;;;;;;;;;;;;;;19.99;70.42;97105.20;589348;240;66639;-67
2022/09/21 03:14:08;;;;;;;;;;;;;;;19.99;69.72;97107.86;589391;240;65026;-67
2022/09/21 03:16:33;;;;;;;;;;;;;;;19.99;70.50;97107.06;589273;240;66912;-66
2022/09/21 03:19:00;;;;;;;;;;;;;;;19.99;69.82;97107.86;589359;240;68533;-67
2022/09/21 03:21:28;;;;;;;;;;;;;;;19.99;70.52;97102.53;589353;240;65023;-67
2022/09/21 03:23:56;;;;;;;;;;;;;;;19.99;70.87;97107.06;589363;240;66692;-66
2022/09/21 03:26:23;;;;;;;;;;;;;;;19.98;69.72;97108.94;589366;240;68443;-67
2022/09/21 03:28:53;;;;;;;;;;;;;;;19.98;69.78;97108.94;589396;240;63112;-67
2022/09/21 03:31:21;;;;;;;;;;;;;;;19.98;70.73;97105.48;589373;240;68799;-67
2022/09/21 03:33:48;;;;;;;;;;;;;;;19.98;70.03;97116.14;589335;240;66969;-67
2022/09/21 03:36:16;;;;;;;;;;;;;;;19.97;70.94;97112.68;589341;240;62984;-66
2022/09/21 03:38:43;;;;;;;;;;;;;;;19.98;71.66;97116.94;589355;240;66683;-67
2022/09/21 03:41:13;;;;;;;;;;;;;;;19.96;70.76;97111.05;589388;240;66800;-67
2022/09/21 03:43:40;;;;;;;;;;;;;;;19.96;70.54;97116.39;589063;240;66283;-67
2022/09/21 03:46:07;;;;;;;;;;;;;;;19.97;70.17;97112.68;589338;240;66702;-67
2022/09/21 03:48:35;;;;;;;;;;;;;;;19.96;69.77;97121.73;589338;240;68767;-67
2022/09/21 03:51:03;;;;;;;;;;;;;;;19.97;70.02;97126.02;589374;240;65122;-67
2022/09/21 03:53:30;;;;;;;;;;;;;;;19.97;70.24;97126.02;589398;240;66313;-68
2022/09/21 03:55:58;;;;;;;;;;;;;;;19.96;70.19;97127.86;589348;240;66772;-68
2022/09/21 03:58:25;;;;;;;;;;;;;;;19.97;70.35;97131.35;589345;240;65130;-68
2022/09/21 04:00:53;;;;;;;;;;;;;;;19.96;70.40;97124.39;589339;240;69019;-67
2022/09/21 04:03:21;;;;;;;;;;;;;;;19.96;70.96;97137.73;589238;240;66726;-67
2022/09/21 04:05:51;;;;;;;;;;;;;;;19.95;70.71;97128.14;589395;240;62946;-68
2022/09/21 04:08:21;;;;;;;;;;;;;;;19.94;70.55;97126.52;589410;240;48477;-67
2022/09/21 04:10:49;;;;;;;;;;;;;;;19.93;70.29;97127.59;589332;240;68711;-68
2022/09/21 04:13:16;;;;;;;;;;;;;;;19.94;70.88;97129.18;589345;240;64992;-67
2022/09/21 04:15:44;;;;;;;;;;;;;;;19.94;70.07;97126.52;589356;240;68814;-67
2022/09/21 04:18:12;;;;;;;;;;;;;;;19.94;71.12;97131.84;589396;240;68698;-67
2022/09/21 04:20:40;;;;;;;;;;;;;;;19.93;70.30;97127.59;589358;240;65041;-67
2022/09/21 04:23:08;;;;;;;;;;;;;;;19.93;70.42;97132.92;589320;240;66769;-67
2022/09/21 04:25:36;;;;;;;;;;;;;;;19.93;70.17;97130.25;589331;240;68698;-68
2022/09/21 04:28:05;;;;;;;;;;;;;;;19.93;71.14;97135.59;589332;240;65059;-68
2022/09/21 04:30:35;;;;;;;;;;;;;;;19.93;71.02;97136.39;589153;240;68912;-68
2022/09/21 04:33:02;;;;;;;;;;;;;;;19.93;70.70;97144.39;589271;240;66666;-68
2022/09/21 04:35:30;;;;;;;;;;;;;;;19.93;70.62;97140.92;589352;240;63116;-67
2022/09/21 04:37:57;;;;;;;;;;;;;;;19.92;70.54;97139.33;589328;240;66693;-67
2022/09/21 04:40:25;;;;;;;;;;;;;;;19.91;71.51;97143.05;589379;240;66459;-67
2022/09/21 04:42:53;;;;;;;;;;;;;;;19.92;70.72;97150.00;589320;240;62910;-67
2022/09/21 04:45:20;;;;;;;;;;;;;;;19.92;70.52;97150.00;589384;240;66606;-67
2022/09/21 04:47:48;;;;;;;;;;;;;;;19.92;70.49;97147.33;589318;240;67029;-67
2022/09/21 04:50:16;;;;;;;;;;;;;;;19.91;71.31;97143.05;589345;240;62941;-67
2022/09/21 04:52:43;;;;;;;;;;;;;;;19.92;70.96;97155.34;589334;240;66738;-67
2022/09/21 04:55:11;;;;;;;;;;;;;;;19.91;70.80;97140.38;589351;240;66664;-67
2022/09/21 04:57:38;;;;;;;;;;;;;;;19.91;71.08;97143.84;589370;240;62903;-67
2022/09/21 05:00:06;;;;;;;;;;;;;;;19.90;70.57;97146.78;589315;240;68577;-67
2022/09/21 05:02:33;;;;;;;;;;;;;;;19.90;70.09;97152.91;589310;240;68695;-67
2022/09/21 05:05:01;;;;;;;;;;;;;;;19.91;70.98;97143.05;589366;240;63826;-67
2022/09/21 05:07:28;;;;;;;;;;;;;;;19.90;71.01;97147.58;589306;240;68609;-68
2022/09/21 05:10:02;;;;;;;;;;;;;;;19.90;71.02;97152.12;589369;240;68907;-68
2022/09/21 05:12:30;;;;;;;;;;;;;;;19.90;70.62;97146.78;589304;240;65152;-68
2022/09/21 05:14:57;;;;;;;;;;;;;;;19.90;69.32;97144.12;589337;240;69139;-68
2022/09/21 05:17:25;;;;;;;;;;;;;;;19.90;69.39;97139.58;589350;240;68679;-68
2022/09/21 05:19:52;;;;;;;;;;;;;;;19.89;69.44;97137.98;589335;240;63091;-68
2022/09/21 05:22:20;;;;;;;;;;;;;;;19.90;70.27;97144.12;589323;240;68846;-67
2022/09/21 05:24:48;;;;;;;;;;;;;;;19.90;71.16;97141.45;589303;240;68596;-67
2022/09/21 05:27:16;;;;;;;;;;;;;;;19.90;70.67;97138.78;589347;240;65035;-67
2022/09/21 05:29:43;;;;;;;;;;;;;;;19.90;72.29;97144.12;589369;240;68906;-67
2022/09/21 05:32:15;;;;;;;;;;;;;;;19.89;71.60;97137.98;589322;240;68633;-67
2022/09/21 05:34:45;;;;;;;;;;;;;;;19.88;70.55;97139.03;589523;240;62972;-67
2022/09/21 05:37:14;;;;;;;;;;;;;;;19.88;71.68;97136.36;589367;240;68864;-67
2022/09/21 05:39:42;;;;;;;;;;;;;;;19.88;70.95;97135.56;589032;240;66655;-67
2022/09/21 05:42:10;;;;;;;;;;;;;;;19.89;71.81;97132.65;589341;240;63003;-67
2022/09/21 05:44:38;;;;;;;;;;;;;;;19.87;71.47;97133.97;589346;240;68937;-67
2022/09/21 05:47:13;;;;;;;;;;;;;;;19.87;71.80;97124.09;589333;240;68730;-67
2022/09/21 05:49:41;;;;;;;;;;;;;;;19.87;72.34;97129.44;589344;240;65118;-67
2022/09/21 05:52:14;;;;;;;;;;;;;;;19.88;71.58;97128.36;588740;240;68866;-65
2022/09/21 05:54:45;;;;;;;;;;;;;;;19.86;69.85;97129.68;589370;240;68333;-65
2022/09/21 05:57:14;;;;;;;;;;;;;;;19.86;71.35;97127.84;589142;240;65046;-66
2022/09/21 05:59:44;;;;;;;;;;;;;;;19.86;70.54;97129.68;589274;240;68663;-66
2022/09/21 06:02:22;;;;;;;;;;;;;;;19.86;69.08;97132.34;587690;240;68886;-66
2022/09/21 06:04:50;;;;;;;;;;;;;;;19.88;73.46;97127.56;585145;242;65062;-66
2022/09/21 06:07:17;;;;;;;;;;;;;;;19.88;73.31;97130.23;585070;242;68462;-68
2022/09/21 06:09:45;;;;;;;;;;;;;;;19.86;72.07;97129.68;585092;242;68574;-67
2022/09/21 06:12:13;;;;;;;;;;;;;;;19.86;71.44;97135.02;585084;242;65106;-66
2022/09/21 06:14:43;;;;;;;;;;;;;;;19.85;68.73;97128.09;584953;242;68544;-69
2022/09/21 06:17:11;;;;;;;;;;;;;;;19.84;67.00;97127.30;585080;242;66668;-69
2022/09/21 06:19:39;;;;;;;;;;;;;;;19.86;67.72;97124.34;585143;242;65017;-69
2022/09/21 06:22:06;;;;;;;;;;;;;;;19.86;69.21;97132.34;585083;242;68597;-65
2022/09/21 06:24:34;;;;;;;;;;;;;;;19.86;68.27;97129.68;579905;242;68704;-66
2022/09/21 06:27:01;;;;;;;;;;;;;;;19.87;68.19;97131.30;578809;245;64971;-66
2022/09/21 06:29:28;;;;;;;;;;;;;;;19.87;68.28;97132.10;578854;245;68970;-66
2022/09/21 06:31:56;;;;;;;;;;;;;;;19.89;68.49;97129.19;578873;245;68838;-66
2022/09/21 06:34:25;;;;;;;;;;;;;;;19.89;68.69;97134.52;578757;245;65127;-66
2022/09/21 06:36:52;;;;;;;;;;;;;;;19.90;69.53;97142.25;578843;245;68783;-66
2022/09/21 06:39:20;;;;;;;;;;;;;;;19.90;69.42;97130.78;578840;245;66722;-68
2022/09/21 06:41:50;;;;;;;;;;;;;;;19.91;69.27;97138.50;578836;245;65079;-65
2022/09/21 06:44:17;;;;;;;;;;;;;;;19.92;69.61;97144.66;578904;245;68745;-65
2022/09/21 06:46:45;;;;;;;;;;;;;;;19.92;70.07;97142.80;578845;245;66705;-64
2022/09/21 06:49:12;;;;;;;;;;;;;;;19.92;69.75;97150.00;578831;245;65075;-64
2022/09/21 06:51:39;;;;;;;;;;;;;;;19.93;70.12;97151.59;578830;245;68766;-64
2022/09/21 06:54:07;;;;;;;;;;;;;;;19.92;70.15;97150.80;578815;245;68735;-65
2022/09/21 06:56:35;;;;;;;;;;;;;;;19.93;70.34;97147.05;578863;245;64998;-63
2022/09/21 06:59:02;;;;;;;;;;;;;;;19.93;70.40;97149.72;578859;245;66631;-64
2022/09/21 07:01:30;;;;;;;;;;;;;;;19.93;70.56;97147.05;578981;244;68927;-65
2022/09/21 07:03:57;;;;;;;;;;;;;;;19.93;70.38;97147.05;581188;244;63156;-66
2022/09/21 07:06:25;;;;;;;;;;;;;;;19.94;70.85;97143.34;581165;244;66721;-66
2022/09/21 07:08:52;;;;;;;;;;;;;;;19.94;70.88;97148.68;581215;244;66436;-66
2022/09/21 07:11:22;;;;;;;;;;;;;;;19.95;71.12;97141.47;581217;244;65109;-66
2022/09/21 07:13:51;;;;;;;;;;;;;;;19.95;71.19;97144.14;581071;244;68938;-66
2022/09/21 07:16:20;;;;;;;;;;;;;;;19.95;70.86;97144.14;581145;244;68988;-65
2022/09/21 07:18:47;;;;;;;;;;;;;;;19.94;70.83;97138.01;581196;244;63155;-65
2022/09/21 07:21:15;;;;;;;;;;;;;;;19.96;71.32;97143.06;581147;244;68854;-65
2022/09/21 07:23:43;;;;;;;;;;;;;;;19.96;70.90;97143.86;581166;244;66760;-64
2022/09/21 07:26:12;;;;;;;;;;;;;;;19.96;69.13;97140.40;581143;244;65127;-64
2022/09/21 07:28:40;;;;;;;;;;;;;;;19.94;70.23;97134.52;581120;244;68854;-67
2022/09/21 07:31:09;;;;;;;;;;;;;;;19.94;71.31;97153.19;581167;244;66760;-65
2022/09/21 07:33:37;;;;;;;;;;;;;;;19.93;68.43;97146.26;581180;244;63055;-64
2022/09/21 07:36:15;;;;;;;;;;;;;;;19.92;69.84;97155.34;581219;244;66372;-69
2022/09/21 07:38:34;;;;;;;;;;;;;;;19.92;70.05;97155.34;580522;244;66475;-62
2022/09/21 07:41:02;;;;;;;;;;;;;;;19.91;68.65;97156.38;581113;244;63028;-65
2022/09/21 07:43:29;;;;;;;;;;;;;;;19.91;68.83;97159.84;581150;244;66913;-65
2022/09/21 07:45:57;;;;;;;;;;;;;;;19.92;69.42;97160.67;581159;244;66672;-65
2022/09/21 07:48:25;;;;;;;;;;;;;;;19.93;70.12;97156.93;581144;244;63136;-65
2022/09/21 07:50:52;;;;;;;;;;;;;;;19.93;70.59;97162.27;581140;244;66653;-66
2022/09/21 07:53:20;;;;;;;;;;;;;;;19.93;70.25;97156.93;581107;244;68799;-66
2022/09/21 07:55:48;;;;;;;;;;;;;;;19.93;69.86;97157.72;581176;244;63017;-66
2022/09/21 08:00:48;;;;;;;;;;;;;;;19.93;70.51;97149.72;574000;244;68636;-66
2022/09/21 08:03:15;;;;;;;;;;;;;;;19.94;70.91;97154.02;581185;244;63033;-67
2022/09/21 08:05:43;;;;;;;;;;;;;;;19.94;71.12;97158.52;581142;244;66575;-67
2022/09/21 08:08:10;;;;;;;;;;;;;;;19.95;71.35;97160.14;581180;244;66742;-67
2022/09/21 08:10:38;;;;;;;;;;;;;;;19.94;71.28;97148.68;581156;244;65421;-67
2022/09/21 08:13:05;;;;;;;;;;;;;;;19.96;71.18;97151.07;581142;244;66692;-67
2022/09/21 08:15:33;;;;;;;;;;;;;;;19.95;71.24;97144.14;581168;244;68554;-67
2022/09/21 08:18:01;;;;;;;;;;;;;;;19.96;71.61;97143.06;581173;244;63138;-67
2022/09/21 08:20:28;;;;;;;;;;;;;;;19.96;72.00;97145.73;581177;244;68873;-67
2022/09/21 08:22:56;;;;;;;;;;;;;;;19.94;71.51;97137.18;581173;244;68307;-66
2022/09/21 08:25:23;;;;;;;;;;;;;;;19.95;71.77;97133.47;581157;244;65065;-68
2022/09/21 08:27:51;;;;;;;;;;;;;;;19.96;71.70;97132.39;581179;244;66539;-68
2022/09/21 08:30:18;;;;;;;;;;;;;;;19.95;71.54;97133.47;581103;244;66963;-69
2022/09/21 08:32:46;;;;;;;;;;;;;;;19.94;71.51;97134.52;581145;244;62952;-73
2022/09/21 08:35:13;;;;;;;;;;;;;;;19.95;71.53;97133.47;581160;244;68836;-68
2022/09/21 08:37:41;;;;;;;;;;;;;;;19.96;71.70;97137.73;581119;244;68495;-68
2022/09/21 08:40:09;;;;;;;;;;;;;;;19.95;71.47;97141.47;581199;244;62968;-73
2022/09/21 08:42:38;;;;;;;;;;;;;;;19.94;71.34;97127.34;581112;244;66871;-67
2022/09/21 08:45:09;;;;;;;;;;;;;;;19.95;71.35;97128.14;581153;244;66668;-69
2022/09/21 08:47:38;;;;;;;;;;;;;;;19.95;71.49;97128.14;580762;244;65310;-67
2022/09/21 08:50:07;;;;;;;;;;;;;;;19.93;71.86;97136.39;581147;244;68536;-67
2022/09/21 08:52:36;;;;;;;;;;;;;;;19.93;72.27;97123.05;580870;243;68751;-66
2022/09/21 08:55:05;;;;;;;;;;;;;;;19.93;71.74;97130.25;581170;244;65379;-66
2022/09/21 08:57:33;;;;;;;;;;;;;;;19.93;71.33;97114.25;581142;244;69013;-66
2022/09/21 09:00:01;;;;;;;;;;;;;;;19.93;71.55;97115.05;581126;244;66747;-67
2022/09/21 09:02:36;;;;;;;;;;;;;;;19.94;71.12;97121.18;580229;244;62923;-66
2022/09/21 09:05:23;;;;;;;;;;;;;;;19.93;71.20;97131.05;578073;245;68754;-67
2022/09/21 09:08:01;;;;;;;;;;;;;;;19.92;71.37;97118.79;579288;245;68834;-67
2022/09/21 09:10:30;;;;;;;;;;;;;;;19.93;72.11;97111.59;579336;245;65091;-66
2022/09/21 09:13:06;;;;;;;;;;;;;;;19.93;72.00;97115.05;579147;245;68890;-67
2022/09/21 09:15:47;;;;;;;;;;;;;;;19.93;71.84;97112.37;579262;245;66702;-68
2022/09/21 09:18:34;;;;;;;;;;;;;;;19.93;71.05;97117.72;579302;245;65193;-67
2022/09/21 09:21:04;;;;;;;;;;;;;;;19.92;72.02;97116.12;579101;245;68978;-67
2022/09/21 09:23:36;;;;;;;;;;;;;;;19.93;72.48;97106.25;579009;245;66662;-67
2022/09/21 09:26:05;;;;;;;;;;;;;;;19.92;72.04;97101.98;578552;245;65267;-67
2022/09/21 09:28:34;;;;;;;;;;;;;;;19.90;67.84;97104.91;579147;245;68898;-67
2022/09/21 09:31:12;;;;;;;;;;;;;;;19.92;69.91;97107.33;579259;245;66607;-68
2022/09/21 09:33:43;;;;;;;;;;;;;;;19.91;70.83;97109.16;579095;242;65071;-67
2022/09/21 09:36:12;;;;;;;;;;;;;;;19.92;73.32;97101.98;582790;242;68802;-67
2022/09/21 09:38:42;;;;;;;;;;;;;;;19.91;72.94;97105.70;580319;242;68578;-67
2022/09/21 09:41:26;;;;;;;;;;;;;;;19.89;72.74;97095.31;578489;245;62986;-66
2022/09/21 09:44:07;;;;;;;;;;;;;;;19.89;73.82;97094.52;579074;245;66669;-65
2022/09/21 09:46:36;;;;;;;;;;;;;;;19.89;73.12;97099.84;579270;245;67046;-67
2022/09/21 09:49:05;;;;;;;;;;;;;;;19.89;74.17;97091.84;579043;244;63027;-66
2022/09/21 09:51:35;;;;;;;;;;;;;;;19.87;73.02;97096.63;579009;245;66605;-65
2022/09/21 09:54:02;;;;;;;;;;;;;;;19.87;74.25;97093.97;579300;245;68556;-66
2022/09/21 09:56:30;;;;;;;;;;;;;;;19.87;73.43;97088.63;579300;245;63073;-65
2022/09/21 09:59:02;;;;;;;;;;;;;;;19.87;72.23;97088.63;579361;245;69012;-65
2022/09/21 10:01:40;;;;;;;;;;;;;;;19.87;72.48;97085.97;579209;245;66504;-64
2022/09/21 10:04:09;;;;;;;;;;;;;;;19.86;72.54;97087.01;579307;241;65061;-65
2022/09/21 10:06:37;;;;;;;;;;;;;;;19.87;74.02;97085.97;579186;245;66077;-65
2022/09/21 10:09:21;;;;;;;;;;;;;;;19.87;74.67;97092.09;579312;245;68501;-65
2022/09/21 10:11:49;;;;;;;;;;;;;;;19.86;74.13;97087.01;579321;245;62912;-66
2022/09/21 10:14:20;;;;;;;;;;;;;;;19.87;74.58;97083.30;579341;245;68436;-67
2022/09/21 10:16:50;;;;;;;;;;;;;;;19.87;73.95;97083.30;579342;245;68724;-65
2022/09/21 10:19:19;;;;;;;;;;;;;;;19.85;72.97;97078.21;579334;245;63045;-66
2022/09/21 10:21:47;;;;;;;;;;;;;;;19.88;74.99;97083.02;579332;245;68519;-69
2022/09/21 10:24:32;;;;;;;;;;;;;;;19.87;74.30;97073.42;579344;245;68477;-69
2022/09/21 10:27:09;;;;;;;;;;;;;;;19.86;74.04;97069.17;579325;245;63030;-70
2022/09/21 10:29:41;;;;;;;;;;;;;;;19.86;74.40;97063.83;579334;245;68808;-69
2022/09/21 10:32:15;;;;;;;;;;;;;;;19.85;73.86;97064.88;579313;245;68716;-73
2022/09/21 10:35:02;;;;;;;;;;;;;;;19.86;74.30;97065.67;579315;245;62931;-70
2022/09/21 10:37:33;;;;;;;;;;;;;;;19.87;75.17;97056.63;579262;245;69027;-68
2022/09/21 10:40:00;;;;;;;;;;;;;;;19.87;75.28;97046.75;579304;245;66472;-69
2022/09/21 10:42:29;;;;;;;;;;;;;;;19.86;74.69;97055.83;579340;245;63032;-70
2022/09/21 10:45:07;;;;;;;;;;;;;;;19.86;74.33;97044.34;579301;245;66038;-66
2022/09/21 10:47:38;;;;;;;;;;;;;;;19.85;74.90;97038.20;579158;245;68749;-67
2022/09/21 10:50:07;;;;;;;;;;;;;;;19.86;74.44;97039.00;579306;245;62948;-66
2022/09/21 10:52:37;;;;;;;;;;;;;;;19.86;72.95;97047.00;578816;245;68964;-66
2022/09/21 10:55:05;;;;;;;;;;;;;;;19.86;74.00;97039.83;579281;245;66434;-67
2022/09/21 10:57:33;;;;;;;;;;;;;;;19.86;74.69;97031.00;579331;245;65104;-67
2022/09/21 11:00:08;;;;;;;;;;;;;;;19.85;74.44;97027.54;579229;241;68831;-67
2022/09/21 11:02:37;;;;;;;;;;;;;;;19.85;73.36;97030.21;576365;245;66982;-67
2022/09/21 11:05:09;;;;;;;;;;;;;;;19.86;71.94;97023.00;575962;246;65036;-68
2022/09/21 11:07:39;;;;;;;;;;;;;;;19.86;71.89;97017.67;575926;242;69151;-68
2022/09/21 11:10:11;;;;;;;;;;;;;;;19.85;69.90;97006.20;575739;245;68698;-67
2022/09/21 11:12:56;;;;;;;;;;;;;;;19.86;69.83;97013.16;575971;246;65080;-68
2022/09/21 11:15:35;;;;;;;;;;;;;;;19.88;66.43;97010.21;575985;246;68839;-67
2022/09/21 11:18:11;;;;;;;;;;;;;;;19.90;70.34;97008.09;575959;246;68749;-67
2022/09/21 11:20:40;;;;;;;;;;;;;;;19.91;68.88;97009.69;575968;246;63392;-68
2022/09/21 11:23:10;;;;;;;;;;;;;;;19.92;68.65;97013.97;576081;243;66517;-69
2022/09/21 11:25:58;;;;;;;;;;;;;;;19.92;69.42;97008.64;579523;242;68690;-68
2022/09/21 11:28:28;;;;;;;;;;;;;;;19.92;69.37;97000.64;576485;243;65496;-68
2022/09/21 11:31:04;;;;;;;;;;;;;;;19.93;69.79;97002.23;582165;243;69076;-68
2022/09/21 11:33:39;;;;;;;;;;;;;;;19.93;69.33;97002.23;582124;243;66586;-67
2022/09/21 11:36:18;;;;;;;;;;;;;;;19.93;68.37;97011.02;582119;243;65428;-67
2022/09/21 11:38:47;;;;;;;;;;;;;;;19.94;67.95;97019.82;577995;245;68873;-67
2022/09/21 11:41:28;;;;;;;;;;;;;;;19.95;67.64;97021.45;582118;243;68739;-67
2022/09/21 11:44:09;;;;;;;;;;;;;;;19.94;68.05;97015.31;582126;243;65051;-69
2022/09/21 11:46:41;;;;;;;;;;;;;;;19.94;67.64;97017.98;582155;243;68819;-69
2022/09/21 11:49:26;;;;;;;;;;;;;;;19.95;68.46;97026.78;581367;239;68725;-69
2022/09/21 11:52:02;;;;;;;;;;;;;;;19.94;68.57;97036.66;578640;242;65195;-68
2022/09/21 11:54:34;;;;;;;;;;;;;;;19.96;69.19;97041.70;584550;242;68861;-66
2022/09/21 11:57:04;;;;;;;;;;;;;;;19.96;69.93;97049.70;583554;242;68720;-66
2022/09/21 11:59:49;;;;;;;;;;;;;;;19.93;70.31;97045.70;583447;242;63092;-67
2022/09/21 12:02:28;;;;;;;;;;;;;;;19.93;70.22;97050.23;586459;240;68965;-67
2022/09/21 12:05:14;;;;;;;;;;;;;;;19.93;70.03;97053.70;588383;240;66674;-67
2022/09/21 12:08:01;;;;;;;;;;;;;;;19.93;69.79;97058.23;589382;240;65270;-68
2022/09/21 12:10:33;;;;;;;;;;;;;;;19.94;69.80;97054.50;589360;240;66701;-67
2022/09/21 12:13:19;;;;;;;;;;;;;;;19.93;70.17;97051.03;589348;240;66444;-67
2022/09/21 12:15:51;;;;;;;;;;;;;;;19.93;70.52;97052.91;589329;240;65320;-67
2022/09/21 12:18:20;;;;;;;;;;;;;;;19.93;69.45;97063.58;581189;240;68791;-67
2022/09/21 12:20:58;;;;;;;;;;;;;;;19.93;68.92;97061.70;581148;244;69078;-68
2022/09/21 12:23:27;;;;;;;;;;;;;;;19.93;71.84;97059.03;580820;244;63215;-67
2022/09/21 12:25:57;;;;;;;;;;;;;;;19.93;68.54;97063.58;581008;244;66700;-68
2022/09/21 12:28:25;;;;;;;;;;;;;;;19.93;70.08;97063.58;581145;244;66708;-67
2022/09/21 12:31:00;;;;;;;;;;;;;;;19.93;69.41;97082.24;581166;244;62855;-67
2022/09/21 12:33:33;;;;;;;;;;;;;;;19.93;70.23;97080.38;581093;244;68733;-66
2022/09/21 12:36:05;;;;;;;;;;;;;;;19.93;69.76;97076.91;577343;244;68815;-67
2022/09/21 12:38:36;;;;;;;;;;;;;;;19.93;70.48;97082.24;580470;244;62956;-66
2022/09/21 12:41:08;;;;;;;;;;;;;;;19.93;69.77;97076.91;581175;244;69577;-67
2022/09/21 12:43:40;;;;;;;;;;;;;;;19.93;69.18;97082.24;581014;244;68614;-67
2022/09/21 12:46:12;;;;;;;;;;;;;;;19.93;69.79;97088.38;581090;244;64947;-67
2022/09/21 12:48:41;;;;;;;;;;;;;;;19.93;70.99;97087.58;581166;244;66892;-67
2022/09/21 12:51:16;;;;;;;;;;;;;;;19.91;69.71;97090.50;581153;244;68757;-67
2022/09/21 12:53:46;;;;;;;;;;;;;;;19.92;69.58;97088.66;581136;244;63048;-66
2022/09/21 12:56:36;;;;;;;;;;;;;;;19.91;69.10;97095.83;581099;244;71122;-66
2022/09/21 12:59:13;;;;;;;;;;;;;;;19.92;70.06;97091.32;581209;244;68855;-66
2022/09/21 13:01:42;;;;;;;;;;;;;;;19.90;70.04;97088.91;579996;244;63096;-66
2022/09/21 13:04:24;;;;;;;;;;;;;;;19.90;70.83;97088.11;575773;245;66672;-66
2022/09/21 13:07:12;;;;;;;;;;;;;;;19.90;70.29;97086.23;575937;246;66785;-65